Time;durP1;ratioP1;P1;durP2;ratioP2;P2;SDS_P1;SDS_P2;PMS_P1;PMS_P2;Temp;Humidity;BMP_temperature;BMP_pressure;BME280_temperature;BME280_humidity;BME280_pressure;Samples;Min_cycle;Max_cycle;Signal;HPM_P1;HPM_P2
2022/08/26 00:02:35;;;;;;;8.38;5.90;;;21.70;99.90;;;;;;10522772;28;20486;-76
2022/08/26 00:07:56;;;;;;;9.85;6.47;;;;;;;;;;10481856;28;20196;-76
2022/08/26 00:13:18;;;;;;;15.40;7.53;;;;;;;;;;10514814;28;20209;-78
2022/08/26 00:18:40;;;;;;;11.52;7.20;;;21.60;99.90;;;;;;10521654;28;20191;-76
2022/08/26 00:24:02;;;;;;;10.63;7.50;;;;;;;;;;10521695;28;20198;-76
2022/08/26 00:29:23;;;;;;;9.23;6.45;;;21.50;99.90;;;;;;10518899;28;20223;-77
2022/08/26 00:34:45;;;;;;;11.18;7.72;;;21.40;99.90;;;;;;10479365;28;20275;-77
2022/08/26 00:40:12;;;;;;;11.68;7.55;;;21.40;99.90;;;;;;10479809;28;20427;-78
2022/08/26 00:45:42;;;;;;;6.85;6.05;;;21.50;99.90;;;;;;10480443;28;20221;-77
2022/08/26 00:51:24;;;;;;;10.13;7.10;;;;;;;;;;10479869;28;20219;-78
2022/08/26 00:57:13;;;;;;;8.88;6.65;;;;;;;;;;10479068;28;20211;-77
2022/08/26 01:02:35;;;;;;;9.52;6.35;;;;;;;;;;10503143;28;20227;-77
2022/08/26 01:07:57;;;;;;;8.85;6.57;;;;;;;;;;10563323;28;20199;-77
2022/08/26 01:13:19;;;;;;;8.15;6.63;;;21.50;99.90;;;;;;10527614;28;20374;-80
2022/08/26 01:18:42;;;;;;;13.13;6.85;;;21.30;99.90;;;;;;10520619;28;20518;-77
2022/08/26 01:24:05;;;;;;;10.77;7.28;;;21.30;99.90;;;;;;10519397;28;20203;-80
2022/08/26 01:29:28;;;;;;;12.13;7.70;;;;;;;;;;10516288;28;20224;-77
2022/08/26 01:34:50;;;;;;;9.32;6.75;;;;;;;;;;10478657;28;20195;-81
2022/08/26 01:40:16;;;;;;;7.63;6.80;;;;;;;;;;10477676;28;20214;-80
2022/08/26 01:45:39;;;;;;;15.95;8.20;;;;;;;;;;10478227;28;20363;-78
2022/08/26 01:51:02;;;;;;;9.57;7.30;;;;;;;;;;10477554;28;20219;-82
2022/08/26 01:56:25;;;;;;;12.15;7.60;;;21.30;99.90;;;;;;10477981;28;20226;-79
2022/08/26 02:01:47;;;;;;;8.85;6.80;;;21.20;99.90;;;;;;10497112;28;20195;-80
2022/08/26 02:07:09;;;;;;;8.93;6.70;;;21.10;99.90;;;;;;10557705;28;20232;-79
2022/08/26 02:12:31;;;;;;;15.45;7.72;;;;;;;;;;10533264;28;20302;-77
2022/08/26 02:17:52;;;;;;;9.10;6.88;;;21.00;99.90;;;;;;10519113;28;20288;-78
2022/08/26 02:23:14;;;;;;;9.98;6.80;;;;;;;;;;10517966;28;20243;-79
2022/08/26 02:28:40;;;;;;;7.97;6.57;;;;;;;;;;10524535;28;20210;-80
2022/08/26 02:34:09;;;;;;;12.73;7.95;;;;;;;;;;10485715;28;20425;-78
2022/08/26 02:39:32;;;;;;;6.75;6.05;;;;;;;;;;10485238;28;20242;-77
2022/08/26 02:44:54;;;;;;;7.47;6.35;;;;;;;;;;10485057;28;20191;-80
2022/08/26 02:50:15;;;;;;;7.28;6.05;;;;;;;;;;10484971;28;20290;-79
2022/08/26 02:55:37;;;;;;;10.25;6.30;;;;;;;;;;10483651;28;20196;-78
2022/08/26 03:00:59;;;;;;;8.43;6.82;;;;;;;;;;10494767;28;20289;-78
2022/08/26 03:06:20;;;;;;;12.23;10.93;;;;;;;;;;10541655;28;20190;-77
2022/08/26 03:11:42;;;;;;;10.52;9.52;;;;;;;;;;10545278;28;20233;-78
2022/08/26 03:17:04;;;;;;;11.18;9.00;;;20.80;99.90;;;;;;10525330;28;20264;-78
2022/08/26 03:22:26;;;;;;;7.50;6.72;;;20.80;99.90;;;;;;10524854;28;20235;-79
2022/08/26 03:27:48;;;;;;;7.07;6.30;;;20.60;99.90;;;;;;10523462;28;20550;-77
2022/08/26 03:33:10;;;;;;;6.47;5.78;;;20.50;99.90;;;;;;10488699;28;20232;-80
2022/08/26 03:38:31;;;;;;;9.82;6.05;;;20.50;99.90;;;;;;10480714;28;20196;-77
2022/08/26 03:43:53;;;;;;;5.47;4.93;;;20.50;99.90;;;;;;10481531;28;20266;-77
2022/08/26 03:49:16;;;;;;;6.85;5.57;;;20.50;99.90;;;;;;10482572;28;20273;-78
2022/08/26 03:54:39;;;;;;;7.28;5.03;;;20.50;99.90;;;;;;10495737;28;20413;-77
2022/08/26 04:00:02;;;;;;;5.80;4.88;;;20.50;99.90;;;;;;10483355;28;20199;-77
2022/08/26 04:05:28;;;;;;;6.68;5.07;;;20.50;99.90;;;;;;10546479;28;20199;-77
2022/08/26 04:10:49;;;;;;;7.75;5.28;;;20.50;99.90;;;;;;10551305;28;20448;-76
2022/08/26 04:16:11;;;;;;;7.13;5.13;;;20.40;99.90;;;;;;10523096;28;20258;-77
2022/08/26 04:21:32;;;;;;;5.75;4.53;;;20.50;99.90;;;;;;10521589;28;20242;-77
2022/08/26 04:26:55;;;;;;;6.15;4.72;;;20.50;99.90;;;;;;10522402;28;20254;-76
2022/08/26 04:32:16;;;;;;;6.10;5.45;;;20.60;99.90;;;;;;10493755;28;20230;-77
2022/08/26 04:37:37;;;;;;;7.03;4.72;;;20.60;99.90;;;;;;10479399;28;20206;-75
2022/08/26 04:42:58;;;;;;;5.65;5.03;;;20.60;99.90;;;;;;10480268;28;20207;-76
2022/08/26 04:48:21;;;;;;;5.70;5.10;;;20.60;99.90;;;;;;10506944;28;20192;-76
2022/08/26 04:53:47;;;;;;;5.40;4.65;;;20.70;99.90;;;;;;10478489;28;20219;-77
2022/08/26 04:59:11;;;;;;;5.47;4.72;;;20.80;99.90;;;;;;10479971;28;20245;-77
2022/08/26 05:04:33;;;;;;;5.72;4.25;;;20.90;99.90;;;;;;10535789;28;20501;-77
2022/08/26 05:09:54;;;;;;;4.28;3.88;;;21.00;99.90;;;;;;10555371;28;20225;-77
2022/08/26 05:15:16;;;;;;;5.35;4.82;;;21.20;99.90;;;;;;10520693;28;20195;-77
2022/08/26 05:20:43;;;;;;;6.38;4.78;;;21.30;99.90;;;;;;10520494;28;20534;-77
2022/08/26 05:26:07;;;;;;;5.90;4.63;;;21.40;99.90;;;;;;10519317;28;20195;-78
2022/08/26 05:31:31;;;;;;;6.07;4.65;;;21.50;99.90;;;;;;10499266;28;20412;-77
2022/08/26 05:36:52;;;;;;;6.38;3.97;;;21.60;99.90;;;;;;10478390;28;20422;-78
2022/08/26 05:42:14;;;;;;;9.57;4.63;;;21.70;99.90;;;;;;10477858;28;20223;-77
2022/08/26 05:47:35;;;;;;;7.32;4.07;;;21.70;99.90;;;;;;10477554;28;20498;-76
2022/08/26 05:52:57;;;;;;;6.40;4.07;;;21.70;99.90;;;;;;10476898;28;20380;-77
2022/08/26 05:58:21;;;;;;;8.43;5.68;;;21.80;99.90;;;;;;10478072;28;20189;-80
2022/08/26 06:03:45;;;;;;;7.78;5.40;;;21.80;99.90;;;;;;10526121;28;20501;-78
2022/08/26 06:09:09;;;;;;;6.93;4.88;;;21.90;99.90;;;;;;10569681;28;20190;-78
2022/08/26 06:14:30;;;;;;;7.93;6.57;;;21.90;99.90;;;;;;10486482;28;20196;-76
2022/08/26 06:19:51;;;;;;;9.35;8.00;;;21.90;99.90;;;;;;10485613;28;20416;-77
2022/08/26 06:30:56;;;;;;;12.63;6.85;;;22.00;99.90;;;;;;10501261;28;20521;-78
2022/08/26 06:36:20;;;;;;;12.02;8.73;;;22.00;99.90;;;;;;10526390;28;20521;-76
2022/08/26 06:41:43;;;;;;;11.52;6.97;;;21.90;99.90;;;;;;10526422;28;20285;-76
2022/08/26 06:47:09;;;;;;;7.43;5.93;;;21.90;99.90;;;;;;10525315;28;20197;-77
2022/08/26 06:52:31;;;;;;;8.60;6.75;;;21.90;99.90;;;;;;10524418;28;20218;-78
2022/08/26 06:57:52;;;;;;;13.27;7.82;;;22.00;99.90;;;;;;10525708;28;20406;-77
2022/08/26 07:03:13;;;;;;;8.65;6.13;;;22.00;99.90;;;;;;10530270;28;20243;-78
2022/08/26 07:08:35;;;;;;;13.15;6.80;;;22.10;99.90;;;;;;10567499;28;20489;-76
2022/08/26 07:13:57;;;;;;;8.63;6.68;;;22.30;99.90;;;;;;10527140;28;20225;-79
2022/08/26 07:19:20;;;;;;;13.57;7.18;;;22.40;99.90;;;;;;10523724;28;20227;-77
2022/08/26 07:24:41;;;;;;;12.48;7.20;;;22.60;99.90;;;;;;10525242;28;20191;-77
2022/08/26 07:30:07;;;;;;;12.00;7.18;;;22.70;99.90;;;;;;10514614;28;20235;-77
2022/08/26 07:35:29;;;;;;;6.03;5.28;;;22.70;99.90;;;;;;10482230;28;20191;-78
2022/08/26 07:40:50;;;;;;;8.73;5.32;;;23.60;99.90;;;;;;10482572;28;20238;-76
2022/08/26 07:46:18;;;;;;;6.43;5.65;;;23.90;99.90;;;;;;10482369;28;20378;-77
2022/08/26 07:51:39;;;;;;;5.13;4.25;;;26.00;99.90;;;;;;10481893;28;20567;-77
2022/08/26 07:57:00;;;;;;;9.02;4.88;;;26.20;99.90;;;;;;10482096;28;20379;-78
2022/08/26 08:02:23;;;;;;;5.93;3.65;;;27.70;99.90;;;;;;10503628;28;20199;-78
2022/08/26 08:07:45;;;;;;;7.80;4.18;;;28.90;99.90;;;;;;10480675;28;20210;-77
2022/08/26 08:13:07;;;;;;;5.45;4.38;;;29.80;99.90;;;;;;10513573;28;20257;-80
2022/08/26 08:18:28;;;;;;;6.10;4.30;;;30.10;97.50;;;;;;10522464;28;20187;-80
2022/08/26 08:23:54;;;;;;;8.38;4.70;;;30.90;95.60;;;;;;10522737;28;20540;-81
2022/08/26 08:29:16;;;;;;;6.28;4.63;;;31.00;93.80;;;;;;10521447;28;20464;-78
2022/08/26 08:34:37;;;;;;;10.70;4.47;;;31.30;93.30;;;;;;10480488;28;20230;-77
2022/08/26 08:40:06;;;;;;;9.57;5.03;;;32.20;88.90;;;;;;10480591;28;20482;-76
2022/08/26 08:45:49;;;;;;;16.27;5.75;;;32.60;82.90;;;;;;10480151;28;20234;-77
2022/08/26 08:51:27;;;;;;;8.40;5.68;;;32.50;79.70;;;;;;10480041;28;20231;-76
2022/08/26 08:57:16;;;;;;;8.57;5.38;;;32.00;83.40;;;;;;10478881;28;20192;-77
2022/08/26 09:03:27;;;;;;;9.50;5.63;;;31.90;85.30;;;;;;10503108;28;20444;-81
2022/08/26 09:08:50;;;;;;;12.02;5.35;;;33.00;72.90;;;;;;10563068;28;20257;-81
2022/08/26 09:14:12;;;;;;;10.52;5.43;;;33.60;43.90;;;;;;10519509;28;20234;-78
2022/08/26 09:19:39;;;;;;;9.90;5.20;;;;;;;;;;10521507;28;20243;-82
2022/08/26 09:25:04;;;;;;;10.13;5.40;;;35.10;35.90;;;;;;10520995;28;20194;-81
2022/08/26 09:30:31;;;;;;;11.57;5.10;;;35.20;34.50;;;;;;10508014;28;20549;-81
2022/08/26 09:36:14;;;;;;;12.70;5.72;;;35.10;29.90;;;;;;10476716;28;20509;-81
2022/08/26 09:41:36;;;;;;;9.98;5.80;;;35.30;28.00;;;;;;10478208;28;20192;-81
2022/08/26 09:47:01;;;;;;;8.80;5.22;;;35.80;28.30;;;;;;10478128;28;20195;-81
2022/08/26 09:52:25;;;;;;;13.52;6.40;;;36.00;23.50;;;;;;10462943;28;20273;-81
2022/08/26 09:57:53;;;;;;;13.45;5.53;;;35.90;21.60;;;;;;10477760;28;20420;-82
2022/08/26 10:03:26;;;;;;;12.38;5.68;;;36.50;19.80;;;;;;10510735;28;20589;-82
2022/08/26 10:08:53;;;;;;;12.93;5.32;;;36.50;18.80;;;;;;10561110;28;20262;-81
2022/08/26 10:14:21;;;;;;;13.45;4.70;;;36.40;18.60;;;;;;10479008;28;20237;-82
2022/08/26 10:19:55;;;;;;;8.10;4.47;;;36.60;17.10;;;;;;10477619;28;20224;-82
2022/08/26 10:25:25;;;;;;;12.50;4.38;;;36.70;14.70;;;;;;10504951;28;20196;-82
2022/08/26 10:30:58;;;;;;;8.90;4.40;;;36.10;15.20;;;;;;10491778;28;20534;-82
2022/08/26 10:42:14;;;;;;;11.18;3.97;;;36.10;13.60;;;;;;10518551;28;20191;-81
2022/08/26 10:47:54;;;;;;;9.85;3.38;;;36.20;13.40;;;;;;10521536;28;20202;-81
2022/08/26 10:53:37;;;;;;;11.52;3.97;;;36.50;11.10;;;;;;10525610;28;20227;-81
2022/08/26 10:59:17;;;;;;;10.52;4.13;;;36.40;11.40;;;;;;10524950;28;20194;-81
2022/08/26 11:04:55;;;;;;;15.30;4.10;;;36.50;10.70;;;;;;10542700;28;20210;-81
2022/08/26 11:10:19;;;;;;;8.55;3.78;;;36.50;10.50;;;;;;10556852;28;20222;-81
2022/08/26 11:15:41;;;;;;;5.53;3.50;;;36.80;9.50;;;;;;10525353;28;20277;-81
2022/08/26 11:21:02;;;;;;;8.93;3.40;;;37.00;8.70;;;;;;10525356;28;20234;-81
2022/08/26 11:26:34;;;;;;;10.57;3.63;;;37.10;6.90;;;;;;10524869;28;20191;-81
2022/08/26 11:31:56;;;;;;;9.93;2.97;;;37.10;5.60;;;;;;10499376;28;20285;-81
2022/08/26 11:37:17;;;;;;;9.30;3.28;;;36.90;6.10;;;;;;10483012;28;20263;-80
2022/08/26 11:42:50;;;;;;;7.50;3.13;;;37.00;6.80;;;;;;10482595;28;20215;-81
2022/08/26 11:48:33;;;;;;;10.23;3.42;;;36.90;5.60;;;;;;10481733;28;20202;-82
2022/08/26 11:54:16;;;;;;;12.07;3.28;;;36.80;6.50;;;;;;10481322;28;20223;-82
2022/08/26 11:59:39;;;;;;;6.68;3.10;;;37.10;5.30;;;;;;10481280;28;20377;-78
2022/08/26 12:05:01;;;;;;;7.97;3.17;;;37.10;4.80;;;;;;10521503;28;20265;-77
2022/08/26 12:10:32;;;;;;;10.13;2.95;;;36.50;4.50;;;;;;10554903;28;20276;-77
2022/08/26 12:15:56;;;;;;;7.10;3.20;;;36.30;3.70;;;;;;10523107;28;20494;-78
2022/08/26 12:21:21;;;;;;;11.52;2.95;;;35.90;3.30;;;;;;10521462;28;20257;-78
2022/08/26 12:26:43;;;;;;;7.88;2.90;;;36.00;4.60;;;;;;10522511;28;20195;-78
2022/08/26 12:32:12;;;;;;;8.07;3.10;;;36.10;4.00;;;;;;10495687;28;20227;-78
2022/08/26 12:37:38;;;;;;;8.23;3.30;;;36.00;3.80;;;;;;10479708;28;20487;-79
2022/08/26 12:43:04;;;;;;;9.73;3.30;;;35.60;3.80;;;;;;10480480;28;20507;-82
2022/08/26 12:48:31;;;;;;;6.22;3.15;;;35.50;5.50;;;;;;10480375;28;20233;-77
2022/08/26 12:53:53;;;;;;;4.63;2.88;;;35.20;4.50;;;;;;10478841;28;20239;-79
2022/08/26 12:59:24;;;;;;;9.15;3.58;;;35.00;5.50;;;;;;10478938;28;20191;-82
2022/08/26 13:04:45;;;;;;;9.35;3.10;;;34.90;5.50;;;;;;10515250;28;20187;-80
2022/08/26 13:10:06;;;;;;;12.43;4.45;;;34.50;6.10;;;;;;10554887;28;20225;-81
2022/08/26 13:15:28;;;;;;;10.50;3.63;;;34.40;7.30;;;;;;10519581;28;20270;-77
2022/08/26 13:20:49;;;;;;;10.05;3.05;;;34.40;7.50;;;;;;10519357;28;20239;-77
2022/08/26 13:26:11;;;;;;;11.65;3.67;;;34.20;8.00;;;;;;10520346;28;20587;-78
2022/08/26 13:31:34;;;;;;;14.77;3.72;;;34.00;8.40;;;;;;10497601;28;20238;-78
2022/08/26 13:36:57;;;;;;;11.90;4.10;;;33.70;7.20;;;;;;10496556;28;20267;-77
2022/08/26 13:42:20;;;;;;;9.15;3.50;;;33.20;7.90;;;;;;10477609;28;20266;-78
2022/08/26 13:47:41;;;;;;;10.77;3.42;;;33.00;8.10;;;;;;10477409;28;20196;-78
2022/08/26 13:53:02;;;;;;;17.92;4.10;;;32.70;7.70;;;;;;10478009;28;20230;-78
2022/08/26 13:58:25;;;;;;;9.02;3.08;;;32.50;7.70;;;;;;10478077;28;20187;-79
2022/08/26 14:03:46;;;;;;;8.70;3.88;;;32.50;8.70;;;;;;10519904;28;20277;-78
2022/08/26 14:09:08;;;;;;;11.27;3.38;;;32.50;8.30;;;;;;10559993;28;20194;-79
2022/08/26 14:14:29;;;;;;;12.68;3.55;;;32.20;8.20;;;;;;10477758;28;20243;-77
2022/08/26 14:19:52;;;;;;;9.80;2.97;;;32.10;8.20;;;;;;10477028;28;20529;-77
2022/08/26 14:25:14;;;;;;;9.35;3.67;;;31.90;8.00;;;;;;10484390;28;20198;-77
2022/08/26 14:30:38;;;;;;;7.43;4.13;;;31.70;8.30;;;;;;10483533;28;20242;-78
2022/08/26 14:41:46;;;;;;;10.50;3.78;;;31.40;8.90;;;;;;10526724;28;20245;-77
2022/08/26 14:47:08;;;;;;;6.60;3.53;;;;;;;;;;10525616;28;20192;-79
2022/08/26 14:54:10;;;;;;;12.00;3.55;;;31.10;8.20;;;;;;10526141;28;20466;-76
2022/08/26 14:58:11;;;;;;;9.40;3.45;;;31.00;8.90;;;;;;10525165;28;20218;-78
2022/08/26 15:03:32;;;;;;;5.47;3.80;;;30.90;9.30;;;;;;10532268;28;20205;-78
2022/08/26 15:08:54;;;;;;;6.35;3.63;;;30.70;9.70;;;;;;10567834;28;20190;-78
2022/08/26 15:14:16;;;;;;;4.90;3.28;;;30.60;9.90;;;;;;10499491;28;20274;-79
2022/08/26 15:19:38;;;;;;;5.50;3.35;;;30.50;10.10;;;;;;10482516;28;20258;-77
2022/08/26 15:25:00;;;;;;;6.55;3.53;;;30.50;9.10;;;;;;10499495;28;20486;-77
2022/08/26 15:30:21;;;;;;;7.95;3.28;;;30.40;9.10;;;;;;10510303;28;20209;-77
2022/08/26 15:35:43;;;;;;;11.52;4.50;;;30.20;8.90;;;;;;10523474;28;20233;-78
2022/08/26 15:41:07;;;;;;;5.28;3.65;;;30.10;9.10;;;;;;10524779;28;20198;-78
2022/08/26 15:46:28;;;;;;;5.82;3.47;;;30.00;8.80;;;;;;10524307;28;20191;-78
2022/08/26 15:51:50;;;;;;;8.13;3.67;;;29.90;9.70;;;;;;10522826;28;20230;-77
2022/08/26 15:57:11;;;;;;;11.38;3.75;;;29.80;10.70;;;;;;10523860;28;20191;-76
2022/08/26 16:02:34;;;;;;;8.30;3.10;;;29.70;10.40;;;;;;10522405;28;20510;-78
2022/08/26 16:07:55;;;;;;;10.93;4.18;;;29.60;10.30;;;;;;10482023;28;20184;-77
2022/08/26 16:13:18;;;;;;;6.43;3.85;;;29.60;11.20;;;;;;10515212;28;20248;-77
2022/08/26 16:18:41;;;;;;;10.60;4.47;;;29.50;11.20;;;;;;10522895;28;20378;-77
2022/08/26 16:24:03;;;;;;;12.32;5.13;;;29.40;10.10;;;;;;10522939;28;20195;-79
2022/08/26 16:29:24;;;;;;;6.53;3.60;;;29.30;11.00;;;;;;10518902;28;20188;-78
2022/08/26 16:34:46;;;;;;;12.25;3.78;;;29.20;11.60;;;;;;10480820;28;20238;-78
2022/08/26 16:40:09;;;;;;;10.85;4.07;;;29.10;12.20;;;;;;10479651;28;20199;-77
2022/08/26 16:45:30;;;;;;;9.95;3.80;;;28.90;12.30;;;;;;10480018;28;20215;-77
2022/08/26 16:50:54;;;;;;;12.57;3.70;;;28.80;12.60;;;;;;10480273;28;20277;-81
2022/08/26 16:56:19;;;;;;;7.63;4.07;;;28.70;12.60;;;;;;10480426;28;20449;-82
2022/08/26 17:01:40;;;;;;;5.95;3.70;;;28.50;13.20;;;;;;10495750;28;20501;-82
2022/08/26 17:07:02;;;;;;;8.77;4.20;;;28.40;13.70;;;;;;10557198;28;20194;-82
2022/08/26 17:12:23;;;;;;;7.45;3.90;;;28.30;14.00;;;;;;10535959;28;20245;-81
2022/08/26 17:17:45;;;;;;;12.90;4.38;;;28.20;14.30;;;;;;10520759;28;20240;-82
2022/08/26 17:23:06;;;;;;;10.85;4.50;;;28.00;14.80;;;;;;10519214;28;20247;-82
2022/08/26 17:28:28;;;;;;;8.80;4.05;;;27.90;15.40;;;;;;10519032;28;20385;-82
2022/08/26 17:33:50;;;;;;;9.40;5.15;;;27.80;16.10;;;;;;10478724;28;20258;-81
2022/08/26 17:39:11;;;;;;;12.45;5.10;;;27.70;16.90;;;;;;10477539;28;20195;-81
2022/08/26 17:44:33;;;;;;;11.45;5.80;;;27.50;17.80;;;;;;10477270;28;20215;-81
2022/08/26 17:49:55;;;;;;;9.05;6.25;;;27.40;17.80;;;;;;10477483;28;20264;-82
2022/08/26 17:55:17;;;;;;;8.82;5.38;;;;;;;;;;10476612;28;20255;-81
2022/08/26 18:00:43;;;;;;;11.70;7.07;;;27.20;20.30;;;;;;10485261;28;20194;-82
2022/08/26 18:06:12;;;;;;;10.45;7.07;;;27.00;21.90;;;;;;10547681;28;20201;-82
2022/08/26 18:11:34;;;;;;;14.70;7.72;;;26.80;25.50;;;;;;10541342;28;20218;-81
2022/08/26 18:16:55;;;;;;;13.73;7.88;;;26.70;26.00;;;;;;10519457;28;20399;-82
2022/08/26 18:22:17;;;;;;;13.02;7.40;;;;;;;;;;10518872;28;20238;-81
2022/08/26 18:27:39;;;;;;;13.25;7.90;;;26.50;42.00;;;;;;10518959;28;20203;-81
2022/08/26 18:33:00;;;;;;;16.25;8.20;;;26.40;51.90;;;;;;10484878;28;20230;-80
2022/08/26 18:38:22;;;;;;;16.23;8.52;;;;;;;;;;10476648;28;20188;-81
2022/08/26 18:43:43;;;;;;;14.43;7.43;;;26.10;78.60;;;;;;10477349;28;20262;-81
2022/08/26 18:49:05;;;;;;;21.50;10.93;;;;;;;;;;10476225;28;20192;-80
2022/08/26 18:54:26;;;;;;;19.63;11.30;;;25.70;68.10;;;;;;10475810;28;20228;-80
2022/08/26 18:59:48;;;;;;;16.23;9.88;;;25.60;76.30;;;;;;10477365;28;20188;-81
2022/08/26 19:05:09;;;;;;;16.35;9.93;;;25.50;80.60;;;;;;10539437;28;20186;-80
2022/08/26 19:10:33;;;;;;;13.48;8.73;;;25.40;84.30;;;;;;10539350;28;20493;-81
2022/08/26 19:15:54;;;;;;;16.02;9.13;;;25.40;86.50;;;;;;10525569;28;20195;-82
2022/08/26 19:21:16;;;;;;;16.55;10.02;;;25.30;88.60;;;;;;10525217;28;20230;-79
2022/08/26 19:26:37;;;;;;;12.02;8.07;;;25.20;90.10;;;;;;10524207;28;20191;-81
2022/08/26 19:31:59;;;;;;;10.63;7.80;;;25.10;90.90;;;;;;10500536;28;20223;-81
2022/08/26 19:37:21;;;;;;;12.93;6.82;;;25.00;91.40;;;;;;10483005;28;20266;-79
2022/08/26 19:42:42;;;;;;;12.18;7.18;;;24.90;91.70;;;;;;10483096;28;20259;-80
2022/08/26 19:48:03;;;;;;;9.48;6.00;;;24.80;91.80;;;;;;10481678;28;20206;-78
2022/08/26 19:53:25;;;;;;;14.90;6.65;;;24.80;92.00;;;;;;10482621;28;20521;-78
2022/08/26 19:58:46;;;;;;;11.15;5.88;;;24.70;92.10;;;;;;10481834;28;20192;-77
2022/08/26 20:04:08;;;;;;;11.63;6.93;;;24.60;93.10;;;;;;10530111;28;20286;-77
2022/08/26 20:09:31;;;;;;;12.45;5.78;;;24.50;93.10;;;;;;10563190;28;20190;-77
2022/08/26 20:14:55;;;;;;;10.35;5.70;;;24.40;93.40;;;;;;10523313;28;20218;-78
2022/08/26 20:25:57;;;;;;;9.10;5.63;;;24.20;99.90;;;;;;10523094;28;20203;-77
2022/08/26 20:31:18;;;;;;;13.05;5.65;;;24.10;20.50;;;;;;10502795;28;20295;-76
2022/08/26 20:36:41;;;;;;;13.93;5.68;;;24.10;96.90;;;;;;10465876;28;20203;-77
2022/08/26 20:42:04;;;;;;;6.90;5.63;;;24.00;97.70;;;;;;10480671;28;20192;-76
2022/08/26 20:47:27;;;;;;;7.97;5.43;;;24.00;99.20;;;;;;10480616;28;20409;-76
2022/08/26 20:52:48;;;;;;;9.38;5.50;;;23.90;99.90;;;;;;10465189;28;20281;-76
2022/08/26 20:58:09;;;;;;;7.80;5.35;;;23.80;99.90;;;;;;10480134;28;20188;-77
2022/08/26 21:03:31;;;;;;;10.90;6.22;;;23.80;99.90;;;;;;10518439;28;20489;-76
2022/08/26 21:08:53;;;;;;;7.43;5.65;;;23.70;99.90;;;;;;10562164;28;20182;-76
2022/08/26 21:14:15;;;;;;;10.23;5.05;;;23.70;99.90;;;;;;10495241;28;20223;-76
2022/08/26 21:19:36;;;;;;;9.38;5.70;;;23.70;99.90;;;;;;10478158;28;20391;-76
2022/08/26 21:24:58;;;;;;;7.47;5.50;;;23.60;99.90;;;;;;10479138;28;20199;-76
2022/08/26 21:30:20;;;;;;;8.18;5.55;;;23.60;99.90;;;;;;10489149;28;20191;-76
2022/08/26 21:35:50;;;;;;;10.52;7.20;;;23.50;99.90;;;;;;10504839;28;20226;-77
2022/08/26 21:41:18;;;;;;;7.07;6.28;;;23.50;99.90;;;;;;10520387;28;20233;-76
2022/08/26 21:46:39;;;;;;;9.20;6.38;;;23.40;99.90;;;;;;10520304;28;20202;-76
2022/08/26 21:52:03;;;;;;;9.30;5.95;;;23.30;99.90;;;;;;10519739;28;20222;-76
2022/08/26 21:57:25;;;;;;;6.55;5.75;;;23.30;99.90;;;;;;10519951;28;20195;-76
2022/08/26 22:02:48;;;;;;;9.25;6.03;;;23.20;99.90;;;;;;10520799;28;20456;-77
2022/08/26 22:08:10;;;;;;;9.05;6.38;;;23.20;99.90;;;;;;10561560;28;20194;-76
2022/08/26 22:13:35;;;;;;;9.05;7.03;;;23.20;99.90;;;;;;10525226;28;20451;-76
2022/08/26 22:18:56;;;;;;;16.00;6.43;;;23.10;99.90;;;;;;10504149;28;20198;-77
2022/08/26 22:24:20;;;;;;;8.70;6.35;;;23.00;99.90;;;;;;10518226;28;20437;-76
2022/08/26 22:29:41;;;;;;;9.90;6.43;;;22.90;99.90;;;;;;10513444;28;20188;-77
2022/08/26 22:35:03;;;;;;;9.77;6.97;;;22.80;99.90;;;;;;10477260;28;20294;-76
2022/08/26 22:40:25;;;;;;;13.07;8.05;;;22.80;99.90;;;;;;10476593;28;20198;-76
2022/08/26 22:45:48;;;;;;;10.38;6.80;;;22.90;99.90;;;;;;10483875;28;20192;-76
2022/08/26 22:51:10;;;;;;;9.23;6.15;;;22.80;99.90;;;;;;10485303;28;20510;-78
2022/08/26 22:56:31;;;;;;;10.00;6.05;;;22.90;99.90;;;;;;10485123;28;20187;-77
2022/08/26 23:01:52;;;;;;;10.80;7.95;;;22.80;99.90;;;;;;10502298;28;20209;-79
2022/08/26 23:07:14;;;;;;;10.85;7.63;;;22.80;99.90;;;;;;10563742;28;20500;-77
2022/08/26 23:12:36;;;;;;;10.60;6.93;;;22.80;99.90;;;;;;10538243;28;20239;-77
2022/08/26 23:17:57;;;;;;;8.25;6.13;;;22.80;99.90;;;;;;10524632;28;20186;-76
2022/08/26 23:23:19;;;;;;;10.05;6.07;;;22.70;99.90;;;;;;10525378;28;20294;-77
2022/08/26 23:28:40;;;;;;;7.28;5.70;;;22.60;99.90;;;;;;10525516;28;20187;-77
2022/08/26 23:39:41;;;;;;;7.05;5.05;;;22.60;99.90;;;;;;10482180;28;20200;-77
2022/08/26 23:45:04;;;;;;;10.60;5.15;;;22.60;99.90;;;;;;10481485;28;20208;-77
2022/08/26 23:56:14;;;;;;;13.30;6.93;;;22.40;99.90;;;;;;10481498;28;20230;-81
